createdAt,value
2023-02-02T00:00:03.893Z,547.00
2023-02-02T00:00:17.872Z,548.00
2023-02-02T00:00:31.864Z,548.00
2023-02-02T00:00:59.839Z,548.00
2023-02-02T00:01:13.842Z,549.00
2023-02-02T00:01:27.843Z,550.00
2023-02-02T00:01:41.818Z,550.00
2023-02-02T00:01:55.813Z,551.00
2023-02-02T00:02:09.793Z,550.00
2023-02-02T00:02:23.832Z,549.00
2023-02-02T00:02:37.888Z,549.00
2023-02-02T00:02:51.980Z,548.00
2023-02-02T00:03:06.062Z,548.00
2023-02-02T00:03:20.073Z,548.00
2023-02-02T00:03:34.128Z,549.00
2023-02-02T00:03:48.234Z,549.00
2023-02-02T00:04:02.314Z,549.00
2023-02-02T00:04:16.510Z,546.00
2023-02-02T00:04:30.524Z,546.00
2023-02-02T00:04:44.515Z,546.00
2023-02-02T00:04:58.503Z,546.00
2023-02-02T00:05:12.490Z,547.00
2023-02-02T00:05:26.500Z,545.00
2023-02-02T00:05:40.483Z,543.00
2023-02-02T00:06:08.441Z,543.00
2023-02-02T00:06:22.449Z,543.00
2023-02-02T00:06:36.446Z,543.00
2023-02-02T00:06:50.436Z,543.00
2023-02-02T00:07:04.441Z,544.00
2023-02-02T00:07:18.426Z,543.00
2023-02-02T00:07:32.419Z,544.00
2023-02-02T00:07:46.404Z,545.00
2023-02-02T00:08:00.397Z,545.00
2023-02-02T00:08:14.393Z,545.00
2023-02-02T00:08:28.383Z,544.00
2023-02-02T00:08:42.365Z,544.00
2023-02-02T00:08:56.365Z,544.00
2023-02-02T00:09:10.366Z,545.00
2023-02-02T00:09:24.372Z,546.00
2023-02-02T00:09:38.379Z,546.00
2023-02-02T00:09:52.372Z,545.00
2023-02-02T00:10:06.385Z,546.00
2023-02-02T00:10:20.374Z,545.00
2023-02-02T00:10:48.345Z,545.00
2023-02-02T00:11:02.352Z,546.00
2023-02-02T00:11:16.335Z,545.00
2023-02-02T00:11:30.353Z,545.00
2023-02-02T00:11:44.363Z,546.00
2023-02-02T00:11:58.342Z,546.00
2023-02-02T00:12:12.343Z,545.00
2023-02-02T00:12:26.323Z,545.00
2023-02-02T00:12:40.320Z,546.00
2023-02-02T00:12:54.304Z,546.00
2023-02-02T00:13:08.290Z,546.00
2023-02-02T00:13:22.307Z,546.00
2023-02-02T00:13:36.292Z,546.00
2023-02-02T00:13:50.278Z,545.00
2023-02-02T00:14:04.266Z,545.00
2023-02-02T00:14:18.272Z,544.00
2023-02-02T00:14:32.257Z,543.00
2023-02-02T00:15:00.235Z,541.00
2023-02-02T00:15:14.234Z,541.00
2023-02-02T00:15:28.219Z,539.00
2023-02-02T00:15:42.197Z,539.00
2023-02-02T00:15:56.242Z,537.00
2023-02-02T00:16:10.300Z,537.00
2023-02-02T00:16:24.390Z,537.00
2023-02-02T00:16:38.385Z,536.00
2023-02-02T00:16:52.386Z,535.00
2023-02-02T00:17:06.360Z,534.00
2023-02-02T00:17:20.343Z,532.00
2023-02-02T00:17:34.328Z,534.00
2023-02-02T00:17:48.311Z,532.00
2023-02-02T00:18:02.316Z,533.00
2023-02-02T00:18:30.273Z,531.00
2023-02-02T00:18:44.278Z,531.00
2023-02-02T00:18:58.256Z,531.00
2023-02-02T00:19:12.242Z,530.00
2023-02-02T00:19:26.225Z,529.00
2023-02-02T00:19:40.232Z,531.00
2023-02-02T00:19:54.222Z,531.00
2023-02-02T00:20:08.223Z,530.00
2023-02-02T00:20:22.223Z,531.00
2023-02-02T00:20:36.238Z,532.00
2023-02-02T00:20:50.220Z,533.00
2023-02-02T00:21:04.232Z,534.00
2023-02-02T00:21:18.205Z,536.00
2023-02-02T00:21:32.212Z,535.00
2023-02-02T00:21:46.228Z,535.00
2023-02-02T00:22:00.212Z,535.00
2023-02-02T00:22:14.212Z,535.00
2023-02-02T00:22:28.217Z,534.00
2023-02-02T00:22:42.223Z,535.00
2023-02-02T00:23:10.227Z,534.00
2023-02-02T00:23:24.227Z,534.00
2023-02-02T00:23:38.217Z,535.00
2023-02-02T00:23:52.204Z,535.00
2023-02-02T00:24:06.196Z,535.00
2023-02-02T00:24:20.187Z,535.00
2023-02-02T00:24:34.191Z,535.00
2023-02-02T00:24:48.171Z,536.00
2023-02-02T00:25:02.160Z,537.00
2023-02-02T00:25:16.144Z,537.00
2023-02-02T00:25:30.131Z,536.00
2023-02-02T00:25:44.120Z,535.00
2023-02-02T00:25:58.114Z,535.00
2023-02-02T00:26:12.099Z,533.00
2023-02-02T00:26:26.126Z,534.00
2023-02-02T00:26:40.221Z,534.00
2023-02-02T00:26:54.314Z,534.00
2023-02-02T00:27:08.320Z,535.00
2023-02-02T00:27:22.309Z,535.00
2023-02-02T00:27:50.268Z,535.00
2023-02-02T00:28:04.249Z,535.00
2023-02-02T00:28:18.234Z,535.00
2023-02-02T00:28:32.227Z,535.00
2023-02-02T00:28:46.227Z,534.00
2023-02-02T00:29:00.219Z,533.00
2023-02-02T00:29:14.214Z,533.00
2023-02-02T00:29:28.217Z,532.00
2023-02-02T00:29:42.212Z,533.00
2023-02-02T00:29:56.184Z,533.00
2023-02-02T00:30:10.204Z,533.00
2023-02-02T00:30:24.229Z,533.00
2023-02-02T00:30:38.292Z,532.00
2023-02-02T00:30:52.345Z,532.00
2023-02-02T00:31:06.363Z,532.00
2023-02-02T00:31:20.415Z,531.00
2023-02-02T00:31:34.567Z,532.00
2023-02-02T00:31:48.723Z,531.00
2023-02-02T00:32:02.782Z,531.00
2023-02-02T00:32:16.777Z,529.00
2023-02-02T00:32:30.765Z,529.00
2023-02-02T00:32:58.724Z,529.00
2023-02-02T00:33:12.703Z,528.00
2023-02-02T00:33:26.692Z,528.00
2023-02-02T00:33:40.683Z,528.00
2023-02-02T00:33:54.691Z,527.00
2023-02-02T00:34:08.667Z,528.00
2023-02-02T00:34:22.649Z,528.00
2023-02-02T00:34:36.632Z,528.00
2023-02-02T00:34:50.631Z,528.00
2023-02-02T00:35:04.615Z,529.00
2023-02-02T00:35:18.624Z,530.00
2023-02-02T00:35:32.611Z,530.00
2023-02-02T00:35:46.618Z,531.00
2023-02-02T00:36:00.603Z,532.00
2023-02-02T00:36:14.619Z,533.00
2023-02-02T00:36:28.600Z,534.00
2023-02-02T00:36:42.583Z,532.00
2023-02-02T00:36:56.560Z,532.00
2023-02-02T00:37:10.557Z,532.00
2023-02-02T00:37:38.512Z,530.00
2023-02-02T00:37:52.501Z,531.00
2023-02-02T00:38:06.483Z,530.00
2023-02-02T00:38:20.467Z,530.00
2023-02-02T00:38:34.455Z,530.00
2023-02-02T00:38:48.461Z,531.00
2023-02-02T00:39:02.473Z,531.00
2023-02-02T00:39:16.508Z,531.00
2023-02-02T00:39:30.507Z,532.00
2023-02-02T00:39:44.489Z,533.00
2023-02-02T00:39:58.489Z,533.00
2023-02-02T00:40:12.486Z,533.00
2023-02-02T00:40:26.481Z,533.00
2023-02-02T00:40:40.459Z,533.00
2023-02-02T00:41:09.109Z,533.00
2023-02-02T00:41:23.103Z,533.00
2023-02-02T00:41:37.085Z,533.00
2023-02-02T00:41:51.088Z,533.00
2023-02-02T00:42:05.094Z,532.00
2023-02-02T00:42:19.115Z,532.00
2023-02-02T00:42:33.100Z,531.00
2023-02-02T00:42:47.088Z,531.00
2023-02-02T00:43:01.066Z,531.00
2023-02-02T00:43:15.066Z,530.00
2023-02-02T00:43:29.050Z,530.00
2023-02-02T00:43:43.039Z,530.00
2023-02-02T00:43:57.028Z,530.00
2023-02-02T00:44:11.025Z,532.00
2023-02-02T00:44:25.086Z,532.00
2023-02-02T00:44:39.076Z,531.00
2023-02-02T00:44:53.060Z,530.00
2023-02-02T00:45:07.057Z,529.00
2023-02-02T00:45:21.060Z,529.00
2023-02-02T00:45:49.115Z,531.00
2023-02-02T00:46:03.212Z,530.00
2023-02-02T00:46:17.239Z,528.00
2023-02-02T00:46:31.234Z,528.00
2023-02-02T00:46:45.215Z,526.00
2023-02-02T00:46:59.229Z,526.00
2023-02-02T00:47:13.227Z,527.00
2023-02-02T00:47:27.211Z,528.00
2023-02-02T00:47:41.194Z,527.00
2023-02-02T00:47:55.203Z,528.00
2023-02-02T00:48:09.180Z,528.00
2023-02-02T00:48:23.180Z,527.00
2023-02-02T00:48:37.162Z,527.00
2023-02-02T00:48:51.169Z,527.00
2023-02-02T00:49:05.154Z,527.00
2023-02-02T00:49:19.141Z,526.00
2023-02-02T00:49:33.122Z,526.00
2023-02-02T00:49:47.116Z,525.00
2023-02-02T00:50:01.150Z,525.00
2023-02-02T00:50:29.095Z,524.00
2023-02-02T00:50:43.109Z,523.00
2023-02-02T00:50:57.137Z,524.00
2023-02-02T00:51:11.148Z,523.00
2023-02-02T00:51:25.146Z,524.00
2023-02-02T00:51:39.148Z,524.00
2023-02-02T00:51:53.126Z,525.00
2023-02-02T00:52:07.122Z,524.00
2023-02-02T00:52:21.127Z,524.00
2023-02-02T00:52:35.118Z,523.00
2023-02-02T00:52:49.134Z,523.00
2023-02-02T00:53:03.142Z,523.00
2023-02-02T00:53:17.128Z,523.00
2023-02-02T00:53:31.120Z,522.00
2023-02-02T00:53:45.109Z,521.00
2023-02-02T00:53:59.082Z,521.00
2023-02-02T00:54:13.094Z,520.00
2023-02-02T00:54:27.073Z,519.00
2023-02-02T00:54:41.070Z,519.00
2023-02-02T00:55:09.028Z,519.00
2023-02-02T00:55:23.416Z,519.00
2023-02-02T00:55:37.580Z,520.00
2023-02-02T00:55:51.575Z,519.00
2023-02-02T00:56:05.569Z,519.00
2023-02-02T00:56:19.576Z,520.00
2023-02-02T00:56:33.567Z,521.00
2023-02-02T00:56:47.556Z,520.00
2023-02-02T00:57:01.560Z,520.00
2023-02-02T00:57:15.552Z,521.00
2023-02-02T00:57:29.533Z,521.00
2023-02-02T00:57:43.511Z,521.00
2023-02-02T00:57:57.499Z,522.00
2023-02-02T00:58:11.489Z,523.00
2023-02-02T00:58:39.455Z,523.00
2023-02-02T00:58:53.433Z,522.00
2023-02-02T00:59:07.404Z,521.00
2023-02-02T00:59:21.395Z,521.00
2023-02-02T00:59:35.387Z,521.00
2023-02-02T00:59:49.416Z,519.00
2023-02-02T01:00:03.393Z,519.00
2023-02-02T01:00:17.385Z,518.00
2023-02-02T01:00:31.362Z,518.00
2023-02-02T01:00:45.388Z,519.00
2023-02-02T01:00:59.474Z,519.00
2023-02-02T01:01:13.524Z,519.00
2023-02-02T01:01:27.499Z,519.00
2023-02-02T01:01:41.506Z,519.00
2023-02-02T01:01:55.549Z,518.00
2023-02-02T01:02:09.677Z,518.00
2023-02-02T01:02:23.816Z,519.00
2023-02-02T01:02:37.806Z,518.00
2023-02-02T01:02:51.793Z,517.00
2023-02-02T01:03:19.749Z,517.00
2023-02-02T01:03:33.745Z,517.00
2023-02-02T01:03:47.734Z,517.00
2023-02-02T01:04:01.721Z,517.00
2023-02-02T01:04:15.711Z,518.00
2023-02-02T01:04:29.711Z,517.00
2023-02-02T01:04:43.712Z,518.00
2023-02-02T01:04:57.711Z,518.00
2023-02-02T01:05:11.704Z,518.00
2023-02-02T01:05:26.014Z,520.00
2023-02-02T01:05:40.098Z,519.00
2023-02-02T01:05:54.097Z,520.00
2023-02-02T01:06:08.111Z,519.00
2023-02-02T01:06:22.089Z,519.00
2023-02-02T01:06:36.073Z,518.00
2023-02-02T01:06:50.070Z,519.00
2023-02-02T01:07:04.065Z,519.00
2023-02-02T01:07:18.053Z,519.00
2023-02-02T01:07:32.033Z,518.00
2023-02-02T01:07:59.983Z,518.00
2023-02-02T01:08:13.974Z,518.00
2023-02-02T01:08:27.976Z,519.00
2023-02-02T01:08:41.982Z,518.00
2023-02-02T01:08:55.966Z,518.00
2023-02-02T01:09:09.951Z,518.00
2023-02-02T01:09:23.939Z,518.00
2023-02-02T01:09:37.921Z,518.00
2023-02-02T01:09:51.908Z,520.00
2023-02-02T01:10:05.931Z,520.00
2023-02-02T01:10:20.014Z,518.00
2023-02-02T01:10:34.048Z,517.00
2023-02-02T01:10:48.039Z,517.00
2023-02-02T01:11:02.027Z,516.00
2023-02-02T01:11:16.013Z,515.00
2023-02-02T01:11:30.004Z,515.00
2023-02-02T01:11:43.986Z,516.00
2023-02-02T01:11:57.977Z,516.00
2023-02-02T01:12:11.973Z,516.00
2023-02-02T01:12:39.934Z,516.00
2023-02-02T01:12:53.942Z,516.00
2023-02-02T01:13:07.924Z,516.00
2023-02-02T01:13:21.925Z,517.00
2023-02-02T01:13:35.916Z,516.00
2023-02-02T01:13:49.924Z,517.00
2023-02-02T01:14:03.921Z,517.00
2023-02-02T01:14:17.922Z,518.00
2023-02-02T01:14:31.906Z,517.00
2023-02-02T01:14:45.894Z,518.00
2023-02-02T01:14:59.869Z,518.00
2023-02-02T01:15:13.897Z,518.00
2023-02-02T01:15:27.886Z,518.00
2023-02-02T01:15:41.895Z,518.00
2023-02-02T01:16:09.907Z,519.00
2023-02-02T01:16:23.943Z,520.00
2023-02-02T01:16:38.048Z,521.00
2023-02-02T01:16:52.062Z,521.00
2023-02-02T01:17:06.050Z,520.00
2023-02-02T01:17:20.031Z,521.00
2023-02-02T01:17:34.015Z,520.00
2023-02-02T01:17:47.984Z,520.00
2023-02-02T01:18:01.975Z,521.00
2023-02-02T01:18:15.964Z,522.00
2023-02-02T01:18:29.954Z,521.00
2023-02-02T01:18:43.945Z,521.00
2023-02-02T01:18:57.941Z,521.00
2023-02-02T01:19:11.931Z,522.00
2023-02-02T01:19:25.933Z,521.00
2023-02-02T01:19:39.917Z,521.00
2023-02-02T01:19:53.899Z,521.00
2023-02-02T01:20:07.887Z,521.00
2023-02-02T01:20:21.902Z,520.00
2023-02-02T01:20:49.869Z,519.00
2023-02-02T01:21:03.851Z,518.00
2023-02-02T01:21:17.875Z,518.00
2023-02-02T01:21:31.869Z,518.00
2023-02-02T01:21:45.883Z,518.00
2023-02-02T01:21:59.886Z,518.00
2023-02-02T01:22:13.891Z,517.00
2023-02-02T01:22:27.879Z,518.00
2023-02-02T01:22:41.915Z,517.00
2023-02-02T01:22:55.890Z,516.00
2023-02-02T01:23:09.884Z,516.00
2023-02-02T01:23:23.873Z,514.00
2023-02-02T01:23:37.862Z,514.00
2023-02-02T01:23:51.847Z,513.00
2023-02-02T01:24:05.841Z,514.00
2023-02-02T01:24:19.845Z,514.00
2023-02-02T01:24:33.822Z,513.00
2023-02-02T01:24:47.829Z,513.00
2023-02-02T01:25:01.810Z,513.00
2023-02-02T01:25:29.809Z,513.00
2023-02-02T01:25:43.802Z,513.00
2023-02-02T01:25:57.817Z,514.00
2023-02-02T01:26:11.857Z,515.00
2023-02-02T01:26:25.911Z,516.00
2023-02-02T01:26:39.948Z,516.00
2023-02-02T01:26:53.979Z,517.00
2023-02-02T01:27:07.972Z,516.00
2023-02-02T01:27:21.953Z,516.00
2023-02-02T01:27:35.949Z,516.00
2023-02-02T01:27:49.934Z,516.00
2023-02-02T01:28:03.934Z,516.00
2023-02-02T01:28:17.917Z,516.00
2023-02-02T01:28:31.918Z,516.00
2023-02-02T01:28:45.905Z,516.00
2023-02-02T01:28:59.894Z,515.00
2023-02-02T01:29:13.880Z,516.00
2023-02-02T01:29:27.872Z,515.00
2023-02-02T01:29:41.874Z,515.00
2023-02-02T01:30:09.837Z,515.00
2023-02-02T01:30:23.830Z,515.00
2023-02-02T01:30:37.845Z,515.00
2023-02-02T01:30:51.895Z,515.00
2023-02-02T01:31:05.947Z,515.00
2023-02-02T01:31:20.031Z,516.00
2023-02-02T01:31:34.102Z,516.00
2023-02-02T01:31:48.142Z,516.00
2023-02-02T01:32:02.218Z,515.00
2023-02-02T01:32:16.225Z,515.00
2023-02-02T01:32:30.230Z,516.00
2023-02-02T01:32:44.231Z,515.00
2023-02-02T01:32:58.210Z,515.00
2023-02-02T01:33:12.199Z,515.00
2023-02-02T01:33:26.187Z,515.00
2023-02-02T01:33:40.184Z,515.00
2023-02-02T01:33:54.166Z,515.00
2023-02-02T01:34:08.180Z,515.00
2023-02-02T01:34:22.172Z,515.00
2023-02-02T01:34:50.130Z,514.00
2023-02-02T01:35:04.129Z,513.00
2023-02-02T01:35:18.123Z,514.00
2023-02-02T01:35:32.136Z,513.00
2023-02-02T01:35:46.107Z,513.00
2023-02-02T01:36:00.122Z,512.00
2023-02-02T01:36:14.116Z,513.00
2023-02-02T01:36:28.155Z,513.00
2023-02-02T01:36:42.139Z,513.00
2023-02-02T01:36:56.151Z,513.00
2023-02-02T01:37:10.131Z,514.00
2023-02-02T01:37:24.126Z,514.00
2023-02-02T01:37:38.104Z,513.00
2023-02-02T01:37:52.088Z,513.00
2023-02-02T01:38:20.039Z,513.00
2023-02-02T01:38:34.028Z,513.00
2023-02-02T01:38:48.055Z,514.00
2023-02-02T01:39:02.035Z,513.00
2023-02-02T01:39:16.029Z,514.00
2023-02-02T01:39:42.829Z,513.00
2023-02-02T01:39:56.805Z,513.00
2023-02-02T01:40:10.815Z,512.00
2023-02-02T01:40:24.824Z,511.00
2023-02-02T01:40:38.810Z,512.00
2023-02-02T01:40:52.815Z,512.00
2023-02-02T01:41:06.802Z,512.00
2023-02-02T01:41:20.819Z,512.00
2023-02-02T01:41:34.808Z,513.00
2023-02-02T01:41:48.800Z,512.00
2023-02-02T01:42:02.777Z,510.00
2023-02-02T01:42:16.765Z,509.00
2023-02-02T01:42:30.753Z,508.00
2023-02-02T01:42:44.733Z,509.00
2023-02-02T01:42:58.708Z,508.00
2023-02-02T01:43:12.694Z,508.00
2023-02-02T01:43:26.678Z,508.00
2023-02-02T01:43:40.666Z,507.00
2023-02-02T01:43:54.648Z,507.00
2023-02-02T01:44:08.663Z,507.00
2023-02-02T01:44:22.652Z,507.00
2023-02-02T01:44:36.638Z,507.00
2023-02-02T01:44:50.633Z,506.00
2023-02-02T01:45:04.624Z,507.00
2023-02-02T01:45:18.612Z,508.00
2023-02-02T01:45:32.664Z,507.00
2023-02-02T01:45:46.674Z,509.00
2023-02-02T01:46:00.704Z,509.00
2023-02-02T01:46:14.825Z,509.00
2023-02-02T01:46:28.862Z,508.00
2023-02-02T01:46:42.840Z,509.00
2023-02-02T01:46:56.830Z,507.00
2023-02-02T01:47:10.825Z,508.00
2023-02-02T01:47:38.837Z,507.00
2023-02-02T01:47:52.833Z,506.00
2023-02-02T01:48:06.818Z,506.00
2023-02-02T01:48:20.797Z,506.00
2023-02-02T01:48:34.791Z,506.00
2023-02-02T01:48:48.762Z,506.00
2023-02-02T01:49:02.768Z,506.00
2023-02-02T01:49:16.765Z,506.00
2023-02-02T01:49:30.762Z,505.00
2023-02-02T01:49:44.746Z,505.00
2023-02-02T01:49:58.740Z,505.00
2023-02-02T01:50:12.742Z,505.00
2023-02-02T01:50:26.754Z,506.00
2023-02-02T01:50:40.746Z,505.00
2023-02-02T01:50:54.743Z,505.00
2023-02-02T01:51:08.724Z,505.00
2023-02-02T01:51:22.719Z,506.00
2023-02-02T01:51:36.747Z,506.00
2023-02-02T01:51:50.748Z,506.00
2023-02-02T01:52:18.732Z,505.00
2023-02-02T01:52:32.721Z,504.00
2023-02-02T01:52:46.712Z,505.00
2023-02-02T01:53:00.762Z,505.00
2023-02-02T01:53:14.769Z,504.00
2023-02-02T01:53:28.742Z,505.00
2023-02-02T01:53:42.748Z,505.00
2023-02-02T01:53:56.732Z,505.00
2023-02-02T01:54:10.718Z,505.00
2023-02-02T01:54:24.700Z,506.00
2023-02-02T01:54:38.693Z,506.00
2023-02-02T01:54:52.682Z,506.00
2023-02-02T01:55:06.675Z,505.00
2023-02-02T01:55:20.660Z,505.00
2023-02-02T01:55:34.656Z,504.00
2023-02-02T01:55:48.651Z,504.00
2023-02-02T01:56:02.645Z,504.00
2023-02-02T01:56:16.629Z,504.00
2023-02-02T01:56:30.661Z,505.00
2023-02-02T01:56:58.627Z,505.00
2023-02-02T01:57:12.611Z,505.00
2023-02-02T01:57:26.598Z,506.00
2023-02-02T01:57:40.583Z,506.00
2023-02-02T01:57:54.575Z,505.00
2023-02-02T01:58:08.558Z,505.00
2023-02-02T01:58:22.541Z,505.00
2023-02-02T01:58:36.521Z,505.00
2023-02-02T01:58:50.507Z,505.00
2023-02-02T01:59:04.492Z,505.00
2023-02-02T01:59:18.473Z,503.00
2023-02-02T01:59:32.466Z,503.00
2023-02-02T01:59:46.444Z,504.00
2023-02-02T02:00:00.435Z,503.00
2023-02-02T02:00:14.408Z,503.00
2023-02-02T02:00:28.401Z,503.00
2023-02-02T02:00:42.387Z,502.00
2023-02-02T02:00:56.438Z,502.00
2023-02-02T02:01:10.479Z,502.00
2023-02-02T02:01:24.560Z,501.00
2023-02-02T02:01:38.648Z,501.00
2023-02-02T02:01:52.658Z,501.00
2023-02-02T02:02:06.738Z,501.00
2023-02-02T02:02:20.885Z,502.00
2023-02-02T02:02:35.003Z,501.00
2023-02-02T02:02:49.024Z,500.00
2023-02-02T02:03:03.038Z,499.00
2023-02-02T02:03:17.020Z,499.00
2023-02-02T02:03:30.998Z,499.00
2023-02-02T02:03:44.985Z,499.00
2023-02-02T02:03:58.975Z,498.00
2023-02-02T02:04:12.959Z,498.00
2023-02-02T02:04:26.937Z,498.00
2023-02-02T02:04:40.933Z,498.00
2023-02-02T02:05:08.889Z,498.00
2023-02-02T02:05:23.147Z,498.00
2023-02-02T02:05:37.323Z,499.00
2023-02-02T02:05:51.356Z,498.00
2023-02-02T02:06:05.371Z,499.00
2023-02-02T02:06:19.421Z,501.00
2023-02-02T02:06:33.412Z,500.00
2023-02-02T02:06:47.444Z,499.00
2023-02-02T02:07:01.432Z,500.00
2023-02-02T02:07:15.426Z,499.00
2023-02-02T02:07:29.440Z,500.00
2023-02-02T02:07:43.432Z,499.00
2023-02-02T02:07:57.429Z,500.00
2023-02-02T02:08:11.455Z,500.00
2023-02-02T02:08:25.451Z,500.00
2023-02-02T02:08:39.437Z,500.00
2023-02-02T02:08:53.416Z,500.00
2023-02-02T02:09:07.402Z,501.00
2023-02-02T02:09:21.415Z,502.00
2023-02-02T02:09:49.426Z,500.00
2023-02-02T02:10:03.405Z,500.00
2023-02-02T02:10:17.400Z,500.00
2023-02-02T02:10:31.403Z,500.00
2023-02-02T02:10:45.404Z,500.00
2023-02-02T02:10:59.413Z,501.00
2023-02-02T02:11:13.405Z,501.00
2023-02-02T02:11:27.418Z,501.00
2023-02-02T02:11:41.417Z,501.00
2023-02-02T02:11:55.441Z,501.00
2023-02-02T02:12:09.447Z,501.00
2023-02-02T02:12:23.445Z,501.00
2023-02-02T02:12:37.435Z,501.00
2023-02-02T02:12:51.429Z,500.00
2023-02-02T02:13:05.428Z,500.00
2023-02-02T02:13:19.448Z,500.00
2023-02-02T02:13:33.438Z,501.00
2023-02-02T02:13:47.421Z,501.00
2023-02-02T02:14:01.401Z,501.00
2023-02-02T02:14:29.375Z,500.00
2023-02-02T02:14:43.351Z,500.00
2023-02-02T02:14:57.366Z,500.00
2023-02-02T02:15:11.344Z,500.00
2023-02-02T02:15:25.774Z,499.00
2023-02-02T02:15:39.833Z,499.00
2023-02-02T02:15:53.821Z,499.00
2023-02-02T02:16:07.809Z,500.00
2023-02-02T02:16:21.839Z,499.00
2023-02-02T02:16:35.868Z,499.00
2023-02-02T02:16:49.885Z,497.00
2023-02-02T02:17:03.868Z,496.00
2023-02-02T02:17:17.860Z,496.00
2023-02-02T02:17:31.854Z,496.00
2023-02-02T02:17:59.822Z,495.00
2023-02-02T02:18:13.837Z,494.00
2023-02-02T02:18:27.855Z,495.00
2023-02-02T02:18:41.840Z,495.00
2023-02-02T02:18:55.820Z,495.00
2023-02-02T02:19:09.822Z,494.00
2023-02-02T02:19:23.802Z,494.00
2023-02-02T02:19:37.795Z,494.00
2023-02-02T02:19:51.790Z,494.00
2023-02-02T02:20:05.777Z,493.00
2023-02-02T02:20:19.767Z,493.00
2023-02-02T02:20:33.779Z,494.00
2023-02-02T02:20:47.762Z,494.00
2023-02-02T02:21:01.784Z,493.00
2023-02-02T02:21:15.775Z,493.00
2023-02-02T02:21:29.760Z,494.00
2023-02-02T02:21:43.756Z,493.00
2023-02-02T02:21:57.772Z,493.00
2023-02-02T02:22:12.214Z,493.00
2023-02-02T02:22:40.173Z,493.00
2023-02-02T02:22:54.160Z,493.00
2023-02-02T02:23:08.144Z,494.00
2023-02-02T02:23:22.142Z,493.00
2023-02-02T02:23:36.115Z,493.00
2023-02-02T02:23:50.101Z,492.00
2023-02-02T02:24:04.082Z,492.00
2023-02-02T02:24:18.086Z,491.00
2023-02-02T02:24:32.061Z,492.00
2023-02-02T02:24:46.058Z,492.00
2023-02-02T02:25:00.063Z,492.00
2023-02-02T02:25:14.063Z,492.00
2023-02-02T02:25:28.050Z,492.00
2023-02-02T02:25:42.044Z,494.00
2023-02-02T02:25:56.029Z,495.00
2023-02-02T02:26:10.019Z,495.00
2023-02-02T02:26:24.017Z,495.00
2023-02-02T02:26:38.052Z,494.00
2023-02-02T02:26:52.073Z,494.00
2023-02-02T02:27:20.059Z,494.00
2023-02-02T02:27:34.051Z,493.00
2023-02-02T02:27:48.037Z,493.00
2023-02-02T02:28:02.042Z,493.00
2023-02-02T02:28:16.032Z,494.00
2023-02-02T02:28:30.031Z,494.00
2023-02-02T02:28:44.015Z,494.00
2023-02-02T02:28:58.024Z,494.00
2023-02-02T02:29:12.034Z,494.00
2023-02-02T02:29:26.024Z,493.00
2023-02-02T02:29:40.012Z,493.00
2023-02-02T02:29:54.000Z,492.00
2023-02-02T02:30:07.991Z,493.00
2023-02-02T02:30:21.974Z,492.00
2023-02-02T02:30:36.085Z,492.00
2023-02-02T02:30:50.252Z,492.00
2023-02-02T02:31:04.379Z,491.00
2023-02-02T02:31:18.500Z,490.00
2023-02-02T02:31:32.720Z,490.00
2023-02-02T02:31:46.966Z,491.00
2023-02-02T02:32:01.058Z,489.00
2023-02-02T02:32:29.034Z,489.00
2023-02-02T02:32:43.030Z,490.00
2023-02-02T02:32:57.007Z,490.00
2023-02-02T02:33:11.000Z,489.00
2023-02-02T02:33:25.062Z,489.00
2023-02-02T02:33:39.056Z,490.00
2023-02-02T02:33:53.060Z,489.00
2023-02-02T02:34:07.049Z,489.00
2023-02-02T02:34:21.036Z,488.00
2023-02-02T02:34:35.035Z,488.00
2023-02-02T02:34:49.025Z,488.00
2023-02-02T02:35:03.022Z,490.00
2023-02-02T02:35:17.015Z,490.00
2023-02-02T02:35:31.013Z,489.00
2023-02-02T02:35:44.993Z,490.00
2023-02-02T02:35:58.985Z,491.00
2023-02-02T02:36:12.979Z,491.00
2023-02-02T02:36:26.974Z,491.00
2023-02-02T02:36:40.962Z,492.00
2023-02-02T02:37:08.947Z,493.00
2023-02-02T02:37:22.937Z,492.00
2023-02-02T02:37:36.922Z,492.00
2023-02-02T02:37:50.914Z,493.00
2023-02-02T02:38:04.912Z,494.00
2023-02-02T02:38:18.900Z,492.00
2023-02-02T02:38:32.879Z,493.00
2023-02-02T02:38:46.895Z,493.00
2023-02-02T02:39:00.882Z,493.00
2023-02-02T02:39:14.865Z,493.00
2023-02-02T02:39:28.861Z,493.00
2023-02-02T02:39:42.860Z,492.00
2023-02-02T02:39:56.851Z,493.00
2023-02-02T02:40:10.852Z,495.00
2023-02-02T02:40:24.843Z,495.00
2023-02-02T02:40:38.849Z,495.00
2023-02-02T02:40:52.883Z,494.00
2023-02-02T02:41:06.888Z,493.00
2023-02-02T02:41:20.868Z,494.00
2023-02-02T02:41:34.866Z,493.00
2023-02-02T02:41:48.850Z,493.00
2023-02-02T02:42:02.844Z,494.00
2023-02-02T02:42:16.848Z,493.00
2023-02-02T02:42:30.837Z,492.00
2023-02-02T02:42:44.819Z,491.00
2023-02-02T02:42:58.807Z,491.00
2023-02-02T02:43:12.794Z,490.00
2023-02-02T02:43:26.783Z,490.00
2023-02-02T02:43:40.807Z,490.00
2023-02-02T02:43:54.794Z,490.00
2023-02-02T02:44:08.807Z,490.00
2023-02-02T02:44:22.813Z,490.00
2023-02-02T02:44:36.823Z,491.00
2023-02-02T02:44:50.837Z,491.00
2023-02-02T02:45:18.809Z,491.00
2023-02-02T02:45:32.791Z,491.00
2023-02-02T02:45:46.780Z,490.00
2023-02-02T02:46:00.861Z,491.00
2023-02-02T02:46:14.891Z,491.00
2023-02-02T02:46:28.914Z,491.00
2023-02-02T02:46:42.922Z,490.00
2023-02-02T02:46:56.921Z,491.00
2023-02-02T02:47:10.921Z,490.00
2023-02-02T02:47:24.907Z,490.00
2023-02-02T02:47:38.903Z,488.00
2023-02-02T02:47:52.909Z,487.00
2023-02-02T02:48:06.896Z,488.00
2023-02-02T02:48:20.887Z,488.00
2023-02-02T02:48:34.878Z,487.00
2023-02-02T02:48:48.861Z,487.00
2023-02-02T02:49:02.845Z,488.00
2023-02-02T02:49:16.830Z,487.00
2023-02-02T02:49:30.822Z,487.00
2023-02-02T02:49:58.788Z,486.00
2023-02-02T02:50:12.804Z,486.00
2023-02-02T02:50:26.786Z,486.00
2023-02-02T02:50:40.797Z,486.00
2023-02-02T02:50:54.776Z,485.00
2023-02-02T02:51:08.784Z,484.00
2023-02-02T02:51:22.803Z,484.00
2023-02-02T02:51:36.798Z,485.00
2023-02-02T02:51:50.798Z,484.00
2023-02-02T02:52:04.798Z,483.00
2023-02-02T02:52:18.803Z,482.00
2023-02-02T02:52:32.801Z,481.00
2023-02-02T02:52:46.789Z,481.00
2023-02-02T02:53:00.787Z,481.00
2023-02-02T02:53:14.781Z,482.00
2023-02-02T02:53:28.773Z,482.00
2023-02-02T02:53:42.759Z,482.00
2023-02-02T02:53:56.752Z,482.00
2023-02-02T02:54:10.726Z,482.00
2023-02-02T02:54:38.686Z,482.00
2023-02-02T02:54:52.713Z,482.00
2023-02-02T02:55:06.722Z,483.00
2023-02-02T02:55:20.736Z,483.00
2023-02-02T02:55:34.711Z,483.00
2023-02-02T02:55:48.701Z,484.00
2023-02-02T02:56:02.690Z,484.00
2023-02-02T02:56:16.688Z,483.00
2023-02-02T02:56:30.675Z,484.00
2023-02-02T02:56:44.658Z,485.00
2023-02-02T02:56:58.641Z,485.00
2023-02-02T02:57:12.623Z,485.00
2023-02-02T02:57:26.598Z,485.00
2023-02-02T02:57:40.614Z,486.00
2023-02-02T02:57:54.619Z,485.00
2023-02-02T02:58:08.635Z,485.00
2023-02-02T02:58:22.618Z,486.00
2023-02-02T02:58:36.606Z,486.00
2023-02-02T02:58:50.597Z,486.00
2023-02-02T02:59:18.580Z,486.00
2023-02-02T02:59:32.575Z,486.00
2023-02-02T02:59:46.578Z,486.00
2023-02-02T03:00:00.635Z,486.00
2023-02-02T03:00:14.644Z,485.00
2023-02-02T03:00:28.640Z,485.00
2023-02-02T03:00:42.628Z,486.00
2023-02-02T03:00:56.627Z,485.00
2023-02-02T03:01:10.683Z,485.00
2023-02-02T03:01:24.724Z,486.00
2023-02-02T03:01:38.803Z,485.00
2023-02-02T03:01:52.859Z,484.00
2023-02-02T03:02:06.854Z,484.00
2023-02-02T03:02:20.861Z,484.00
2023-02-02T03:02:34.932Z,485.00
2023-02-02T03:02:49.041Z,485.00
2023-02-02T03:03:03.062Z,486.00
2023-02-02T03:03:17.061Z,485.00
2023-02-02T03:03:31.045Z,486.00
2023-02-02T03:03:45.043Z,487.00